createdAt,value
2022-09-14T00:00:07.888Z,24.90
2022-09-14T00:01:24.208Z,21.80
2022-09-14T00:02:08.967Z,23.00
2022-09-14T00:03:08.052Z,24.20
2022-09-14T00:04:07.850Z,23.60
2022-09-14T00:05:07.840Z,22.30
2022-09-14T00:06:07.801Z,26.10
2022-09-14T00:07:07.811Z,20.50
2022-09-14T00:08:07.779Z,20.70
2022-09-14T00:09:07.782Z,25.50
2022-09-14T00:10:07.822Z,22.50
2022-09-14T00:11:07.754Z,24.00
2022-09-14T00:12:07.736Z,22.60
2022-09-14T00:13:07.728Z,24.80
2022-09-14T00:14:07.713Z,28.10
2022-09-14T00:15:07.707Z,27.00
2022-09-14T00:16:07.748Z,24.90
2022-09-14T00:17:07.795Z,22.90
2022-09-14T00:18:07.673Z,26.20
2022-09-14T00:19:07.844Z,25.70
2022-09-14T00:20:07.660Z,22.50
2022-09-14T00:21:07.624Z,23.50
2022-09-14T00:22:07.652Z,23.80
2022-09-14T00:23:07.615Z,21.80
2022-09-14T00:24:07.615Z,25.10
2022-09-14T00:25:07.596Z,23.70
2022-09-14T00:26:07.578Z,23.40
2022-09-14T00:27:07.586Z,22.50
2022-09-14T00:28:07.598Z,24.30
2022-09-14T00:29:07.536Z,24.20
2022-09-14T00:30:07.532Z,23.70
2022-09-14T00:31:07.513Z,25.00
2022-09-14T00:32:07.575Z,24.20
2022-09-14T00:33:07.495Z,22.70
2022-09-14T00:34:07.498Z,26.30
2022-09-14T00:35:07.466Z,25.70
2022-09-14T00:36:07.470Z,23.90
2022-09-14T00:37:07.445Z,25.10
2022-09-14T00:38:07.450Z,28.20
2022-09-14T00:39:07.446Z,26.40
2022-09-14T00:40:07.480Z,26.80
2022-09-14T00:41:07.409Z,25.20
2022-09-14T00:42:07.397Z,24.90
2022-09-14T00:43:07.389Z,24.90
2022-09-14T00:44:07.372Z,23.40
2022-09-14T00:45:07.377Z,26.90
2022-09-14T00:46:07.446Z,27.30
2022-09-14T00:47:07.357Z,25.50
2022-09-14T00:48:07.330Z,26.20
2022-09-14T00:49:07.314Z,27.10
2022-09-14T00:50:07.300Z,22.70
2022-09-14T00:51:07.319Z,25.20
2022-09-14T00:52:07.279Z,26.50
2022-09-14T00:53:07.271Z,26.70
2022-09-14T00:54:07.249Z,26.50
2022-09-14T00:55:07.245Z,22.80
2022-09-14T00:56:07.275Z,26.20
2022-09-14T00:57:07.222Z,23.70
2022-09-14T00:58:07.212Z,23.40
2022-09-14T00:59:07.210Z,25.40
2022-09-14T01:00:07.181Z,29.60
2022-09-14T01:01:07.230Z,26.60
2022-09-14T01:02:07.265Z,26.10
2022-09-14T01:03:07.164Z,24.40
2022-09-14T01:04:07.157Z,26.60
2022-09-14T01:05:07.134Z,26.10
2022-09-14T01:06:07.127Z,24.70
2022-09-14T01:07:07.116Z,28.10
2022-09-14T01:08:07.124Z,25.10
2022-09-14T01:09:07.083Z,23.90
2022-09-14T01:10:07.075Z,21.80
2022-09-14T01:11:07.064Z,23.20
2022-09-14T01:12:07.056Z,24.80
2022-09-14T01:13:07.067Z,27.80
2022-09-14T01:14:07.033Z,25.40
2022-09-14T01:15:07.005Z,21.00
2022-09-14T01:16:07.042Z,24.70
2022-09-14T01:17:06.989Z,24.30
2022-09-14T01:18:06.986Z,24.50
2022-09-14T01:19:06.988Z,25.00
2022-09-14T01:20:06.980Z,28.10
2022-09-14T01:21:06.945Z,25.60
2022-09-14T01:22:06.944Z,23.90
2022-09-14T01:23:06.936Z,23.00
2022-09-14T01:24:06.936Z,22.50
2022-09-14T01:25:06.907Z,24.80
2022-09-14T01:26:06.901Z,23.90
2022-09-14T01:27:06.879Z,22.30
2022-09-14T01:28:06.867Z,22.30
2022-09-14T01:29:06.857Z,25.40
2022-09-14T01:30:06.860Z,18.80
2022-09-14T01:31:06.848Z,27.50
2022-09-14T01:32:06.821Z,19.10
2022-09-14T01:33:06.802Z,24.00
2022-09-14T01:34:06.799Z,19.10
2022-09-14T01:35:06.823Z,22.30
2022-09-14T01:36:06.773Z,20.50
2022-09-14T01:37:06.760Z,22.10
2022-09-14T01:38:06.761Z,19.20
2022-09-14T01:39:06.740Z,19.80
2022-09-14T01:40:06.823Z,22.40
2022-09-14T01:41:06.738Z,21.30
2022-09-14T01:42:06.714Z,20.40
2022-09-14T01:43:06.690Z,17.30
2022-09-14T01:44:06.681Z,20.10
2022-09-14T01:45:06.675Z,18.50
2022-09-14T01:46:06.787Z,20.20
2022-09-14T01:47:06.676Z,20.00
2022-09-14T01:48:06.658Z,23.10
2022-09-14T01:49:06.626Z,21.90
2022-09-14T01:50:06.622Z,20.20
2022-09-14T01:51:06.609Z,20.40
2022-09-14T01:52:06.596Z,19.30
2022-09-14T01:53:06.604Z,22.80
2022-09-14T01:54:06.572Z,23.10
2022-09-14T01:55:06.573Z,20.40
2022-09-14T01:56:06.546Z,19.90
2022-09-14T01:57:06.535Z,20.70
2022-09-14T01:58:06.565Z,25.40
2022-09-14T01:59:06.533Z,21.80
2022-09-14T02:00:06.495Z,20.50
2022-09-14T02:01:06.611Z,17.90
2022-09-14T02:02:06.502Z,23.20
2022-09-14T02:03:06.473Z,23.50
2022-09-14T02:04:06.494Z,17.90
2022-09-14T02:05:06.445Z,20.00
2022-09-14T02:06:06.436Z,22.40
2022-09-14T02:07:06.428Z,20.30
2022-09-14T02:08:06.407Z,20.40
2022-09-14T02:09:06.407Z,20.90
2022-09-14T02:10:06.407Z,20.30
2022-09-14T02:11:06.391Z,22.00
2022-09-14T02:12:06.367Z,18.70
2022-09-14T02:13:06.357Z,21.00
2022-09-14T02:14:06.357Z,19.70
2022-09-14T02:15:06.329Z,21.60
2022-09-14T02:16:06.387Z,19.30
2022-09-14T02:17:06.309Z,18.60
2022-09-14T02:18:06.326Z,20.70
2022-09-14T02:19:06.295Z,20.20
2022-09-14T02:20:06.268Z,21.10
2022-09-14T02:21:06.277Z,20.70
2022-09-14T02:22:06.261Z,19.60
2022-09-14T02:23:06.243Z,19.70
2022-09-14T02:24:06.221Z,23.20
2022-09-14T02:25:06.220Z,24.10
2022-09-14T02:26:06.204Z,19.90
2022-09-14T02:27:06.262Z,22.90
2022-09-14T02:28:06.183Z,25.20
2022-09-14T02:29:06.172Z,19.40
2022-09-14T02:30:06.161Z,23.10
2022-09-14T02:31:06.168Z,21.70
2022-09-14T02:32:06.143Z,18.60
2022-09-14T02:33:06.164Z,18.50
2022-09-14T02:34:06.113Z,24.20
2022-09-14T02:35:06.104Z,20.40
2022-09-14T02:36:06.091Z,18.90
2022-09-14T02:37:06.085Z,20.20
2022-09-14T02:38:06.066Z,24.10
2022-09-14T02:39:06.092Z,23.10
2022-09-14T02:40:06.074Z,24.70
2022-09-14T02:41:06.052Z,23.30
2022-09-14T02:42:06.031Z,22.30
2022-09-14T02:43:06.014Z,23.10
2022-09-14T02:44:05.994Z,21.40
2022-09-14T02:45:06.091Z,21.10
2022-09-14T02:46:05.966Z,23.70
2022-09-14T02:47:06.057Z,22.90
2022-09-14T02:48:05.946Z,20.70
2022-09-14T02:49:05.938Z,18.80
2022-09-14T02:50:05.964Z,19.20
2022-09-14T02:51:05.916Z,18.20
2022-09-14T02:52:05.908Z,21.10
2022-09-14T02:53:05.900Z,21.20
2022-09-14T02:54:05.883Z,20.20
2022-09-14T02:55:05.879Z,20.70
2022-09-14T02:56:05.888Z,19.60
2022-09-14T02:57:05.851Z,19.00
2022-09-14T02:58:05.852Z,21.30
2022-09-14T02:59:05.823Z,22.80
2022-09-14T03:00:05.823Z,19.40
2022-09-14T03:01:05.866Z,21.20
2022-09-14T03:02:05.886Z,18.80
2022-09-14T03:03:05.780Z,20.80
2022-09-14T03:04:05.769Z,22.20
2022-09-14T03:05:05.768Z,20.00
2022-09-14T03:06:05.740Z,23.30
2022-09-14T03:07:05.737Z,21.00
2022-09-14T03:08:05.741Z,25.60
2022-09-14T03:09:05.726Z,19.50
2022-09-14T03:10:05.701Z,22.00
2022-09-14T03:11:05.681Z,19.50
2022-09-14T03:12:05.680Z,21.50
2022-09-14T03:13:05.672Z,23.60
2022-09-14T03:14:05.688Z,21.90
2022-09-14T03:15:05.642Z,20.80
2022-09-14T03:16:05.691Z,20.60
2022-09-14T03:17:05.631Z,20.60
2022-09-14T03:18:05.612Z,23.80
2022-09-14T03:19:05.643Z,24.40
2022-09-14T03:20:05.597Z,22.80
2022-09-14T03:21:05.585Z,23.40
2022-09-14T03:22:05.608Z,22.10
2022-09-14T03:23:05.586Z,24.90
2022-09-14T03:24:05.561Z,25.00
2022-09-14T03:25:05.594Z,20.90
2022-09-14T03:26:05.528Z,20.00
2022-09-14T03:27:05.514Z,24.80
2022-09-14T03:28:05.504Z,22.90
2022-09-14T03:29:05.493Z,24.80
2022-09-14T03:30:05.496Z,26.40
2022-09-14T03:31:05.511Z,24.10
2022-09-14T03:32:05.458Z,23.40
2022-09-14T03:33:05.436Z,22.50
2022-09-14T03:34:05.435Z,24.20
2022-09-14T03:35:05.414Z,25.40
2022-09-14T03:36:05.437Z,28.30
2022-09-14T03:37:05.399Z,22.80
2022-09-14T03:38:05.386Z,24.70
2022-09-14T03:39:05.379Z,26.20
2022-09-14T03:40:05.409Z,25.10
2022-09-14T03:41:05.350Z,24.70
2022-09-14T03:42:05.358Z,25.30
2022-09-14T03:43:05.320Z,26.00
2022-09-14T03:44:05.309Z,27.90
2022-09-14T03:45:05.304Z,24.10
2022-09-14T03:46:05.311Z,22.90
2022-09-14T03:47:05.282Z,24.70
2022-09-14T03:48:05.305Z,26.80
2022-09-14T03:49:05.256Z,29.80
2022-09-14T03:50:05.270Z,25.60
2022-09-14T03:51:05.243Z,24.80
2022-09-14T03:52:05.225Z,27.90
2022-09-14T03:53:05.202Z,28.80
2022-09-14T03:54:05.230Z,24.00
2022-09-14T03:55:05.187Z,27.20
2022-09-14T03:56:05.172Z,30.20
2022-09-14T03:57:05.162Z,28.80
2022-09-14T03:58:05.165Z,34.10
2022-09-14T03:59:05.144Z,28.70
2022-09-14T04:00:05.152Z,27.10
2022-09-14T04:01:05.134Z,27.30
2022-09-14T04:02:05.203Z,23.60
2022-09-14T04:03:05.143Z,27.20
2022-09-14T04:04:05.084Z,31.80
2022-09-14T04:05:05.080Z,26.90
2022-09-14T04:06:05.085Z,26.80
2022-09-14T04:07:05.047Z,28.80
2022-09-14T04:08:05.035Z,30.80
2022-09-14T04:09:05.039Z,24.50
2022-09-14T04:10:05.024Z,25.50
2022-09-14T04:11:05.045Z,24.40
2022-09-14T04:12:05.017Z,24.10
2022-09-14T04:13:04.977Z,24.60
2022-09-14T04:14:04.977Z,30.60
2022-09-14T04:15:04.957Z,26.40
2022-09-14T04:16:05.023Z,32.00
2022-09-14T04:17:04.936Z,27.50
2022-09-14T04:18:04.946Z,23.90
2022-09-14T04:19:04.917Z,24.10
2022-09-14T04:20:04.897Z,22.90
2022-09-14T04:21:08.305Z,27.50
2022-09-14T04:22:04.876Z,22.40
2022-09-14T04:23:04.881Z,24.00
2022-09-14T04:24:15.018Z,22.30
2022-09-14T04:25:05.848Z,21.90
2022-09-14T04:26:04.830Z,23.10
2022-09-14T04:27:04.843Z,19.60
2022-09-14T04:28:19.643Z,21.60
2022-09-14T04:29:05.860Z,22.20
2022-09-14T04:30:04.783Z,20.90
2022-09-14T04:31:04.797Z,18.40
2022-09-14T04:32:04.772Z,19.80
2022-09-14T04:33:04.761Z,21.20
2022-09-14T04:34:04.743Z,21.20
2022-09-14T04:35:04.765Z,17.00
2022-09-14T04:36:04.719Z,20.30
2022-09-14T04:37:04.714Z,17.90
2022-09-14T04:38:04.708Z,18.80
2022-09-14T04:39:04.763Z,18.30
2022-09-14T04:40:04.777Z,21.30
2022-09-14T04:41:04.772Z,20.50
2022-09-14T04:42:04.653Z,23.80
2022-09-14T04:43:04.657Z,28.80
2022-09-14T04:44:04.633Z,22.30
2022-09-14T04:45:04.615Z,24.30
2022-09-14T04:46:04.694Z,27.20
2022-09-14T04:47:04.630Z,24.40
2022-09-14T04:48:04.595Z,24.00
2022-09-14T04:49:04.577Z,23.30
2022-09-14T04:50:04.575Z,24.80
2022-09-14T04:51:04.556Z,25.50
2022-09-14T04:52:04.567Z,25.40
2022-09-14T04:53:04.536Z,27.00
2022-09-14T04:54:04.520Z,24.30
2022-09-14T04:55:04.511Z,26.30
2022-09-14T04:56:04.505Z,27.00
2022-09-14T04:57:04.487Z,25.10
2022-09-14T04:58:04.497Z,25.30
2022-09-14T04:59:04.535Z,24.50
2022-09-14T05:00:04.466Z,24.60
2022-09-14T05:01:04.437Z,26.60
2022-09-14T05:02:04.469Z,25.10
2022-09-14T05:03:04.506Z,27.00
2022-09-14T05:04:04.403Z,26.90
2022-09-14T05:05:04.398Z,28.20
2022-09-14T05:06:04.378Z,28.40
2022-09-14T05:07:04.381Z,27.30
2022-09-14T05:08:04.360Z,24.30
2022-09-14T05:09:04.380Z,25.10
2022-09-14T05:10:04.349Z,26.20
2022-09-14T05:11:04.319Z,22.00
2022-09-14T05:12:04.327Z,22.40
2022-09-14T05:13:04.308Z,24.30
2022-09-14T05:14:04.342Z,23.60
2022-09-14T05:15:04.336Z,21.40
2022-09-14T05:16:04.340Z,17.90
2022-09-14T05:17:04.260Z,21.30
2022-09-14T05:18:04.241Z,19.60
2022-09-14T05:19:04.236Z,23.50
2022-09-14T05:20:04.299Z,20.50
2022-09-14T05:21:08.124Z,19.70
2022-09-14T05:22:04.257Z,21.00
2022-09-14T05:23:04.243Z,21.90
2022-09-14T05:24:04.211Z,19.70
2022-09-14T05:25:04.173Z,20.80
2022-09-14T05:26:04.174Z,20.70
2022-09-14T05:27:04.144Z,18.60
2022-09-14T05:28:04.145Z,20.50
2022-09-14T05:29:04.132Z,20.90
2022-09-14T05:30:04.116Z,19.50
2022-09-14T05:31:04.221Z,19.30
2022-09-14T05:32:04.103Z,20.80
2022-09-14T05:33:04.140Z,19.50
2022-09-14T05:34:04.097Z,18.40
2022-09-14T05:35:04.185Z,16.70
2022-09-14T05:36:04.044Z,18.80
2022-09-14T05:37:04.155Z,15.80
2022-09-14T05:38:04.030Z,16.00
2022-09-14T05:39:04.021Z,18.00
2022-09-14T05:40:04.060Z,18.30
2022-09-14T05:41:03.986Z,19.30
2022-09-14T05:42:03.980Z,17.20
2022-09-14T05:43:04.001Z,18.10
2022-09-14T05:44:03.979Z,16.20
2022-09-14T05:45:03.936Z,16.50
2022-09-14T05:46:03.959Z,17.90
2022-09-14T05:47:03.916Z,16.70
2022-09-14T05:48:03.906Z,17.00
2022-09-14T05:49:03.917Z,17.00
2022-09-14T05:50:03.903Z,17.20
2022-09-14T05:51:03.867Z,18.40
2022-09-14T05:52:03.860Z,18.60
2022-09-14T05:53:03.857Z,16.80
2022-09-14T05:54:03.859Z,16.20
2022-09-14T05:55:03.838Z,17.00
2022-09-14T05:56:03.814Z,17.80
2022-09-14T05:57:03.817Z,15.90
2022-09-14T05:58:03.795Z,15.40
2022-09-14T05:59:03.794Z,14.60
2022-09-14T06:00:03.802Z,16.20
2022-09-14T06:01:03.762Z,14.90
2022-09-14T06:02:03.776Z,15.60
2022-09-14T06:03:03.760Z,15.80
2022-09-14T06:04:03.736Z,16.90
2022-09-14T06:05:03.755Z,13.20
2022-09-14T06:06:03.729Z,14.30
2022-09-14T06:07:17.865Z,14.60
2022-09-14T06:08:04.675Z,15.00
2022-09-14T06:09:03.674Z,15.30
2022-09-14T06:10:03.663Z,13.40
2022-09-14T06:11:03.674Z,13.80
2022-09-14T06:12:03.683Z,14.30
2022-09-14T06:13:03.617Z,15.10
2022-09-14T06:14:03.604Z,12.10
2022-09-14T06:15:03.596Z,14.90
2022-09-14T06:16:03.587Z,12.20
2022-09-14T06:17:03.623Z,12.90
2022-09-14T06:18:03.575Z,11.00
2022-09-14T06:19:03.562Z,12.10
2022-09-14T06:20:04.910Z,10.40
2022-09-14T06:21:03.544Z,14.20
2022-09-14T06:22:03.516Z,11.80
2022-09-14T06:23:03.536Z,13.10
2022-09-14T06:24:03.495Z,14.00
2022-09-14T06:25:03.502Z,10.80
2022-09-14T06:26:03.477Z,12.70
2022-09-14T06:27:03.466Z,15.10
2022-09-14T06:28:03.468Z,13.70
2022-09-14T06:29:03.470Z,12.40
2022-09-14T06:30:03.426Z,13.10
2022-09-14T06:31:03.418Z,15.20
2022-09-14T06:32:03.410Z,12.60
2022-09-14T06:33:03.388Z,11.00
2022-09-14T06:34:03.382Z,11.40
2022-09-14T06:35:03.420Z,12.60
2022-09-14T06:36:03.359Z,14.30
2022-09-14T06:37:03.346Z,15.90
2022-09-14T06:38:03.338Z,12.10
2022-09-14T06:39:03.329Z,13.10
2022-09-14T06:40:03.399Z,12.00
2022-09-14T06:41:03.334Z,10.30
2022-09-14T06:42:03.299Z,11.50
2022-09-14T06:43:03.300Z,12.50
2022-09-14T06:44:03.276Z,12.30
2022-09-14T06:45:03.283Z,11.10
2022-09-14T06:46:03.249Z,13.30
2022-09-14T06:47:03.283Z,12.00
2022-09-14T06:48:03.231Z,9.60
2022-09-14T06:49:03.217Z,9.90
2022-09-14T06:50:03.222Z,10.30
2022-09-14T06:51:03.182Z,11.20
2022-09-14T06:52:03.173Z,10.40
2022-09-14T06:53:03.192Z,11.10
2022-09-14T06:54:03.153Z,12.30
2022-09-14T06:55:03.133Z,11.00
2022-09-14T06:56:03.134Z,12.40
2022-09-14T06:57:03.124Z,9.70
2022-09-14T06:58:03.114Z,11.20
2022-09-14T06:59:03.169Z,12.60
2022-09-14T07:00:03.095Z,10.40
2022-09-14T07:01:03.076Z,11.80
2022-09-14T07:02:03.058Z,11.90
2022-09-14T07:03:03.069Z,8.50
2022-09-14T07:04:03.047Z,8.90
2022-09-14T07:05:03.044Z,9.80
2022-09-14T07:06:03.016Z,11.10
2022-09-14T07:07:03.006Z,10.70
2022-09-14T07:08:02.996Z,12.20
2022-09-14T07:09:02.997Z,9.40
2022-09-14T07:10:03.019Z,8.70
2022-09-14T07:11:02.978Z,9.60
2022-09-14T07:12:02.937Z,10.00
2022-09-14T07:13:02.988Z,11.10
2022-09-14T07:14:02.936Z,10.70
2022-09-14T07:15:02.907Z,9.70
2022-09-14T07:16:02.947Z,11.50
2022-09-14T07:17:02.916Z,10.10
2022-09-14T07:18:02.871Z,8.00
2022-09-14T07:19:02.889Z,10.90
2022-09-14T07:20:02.868Z,12.40
2022-09-14T07:21:05.542Z,8.60
2022-09-14T07:22:02.859Z,9.90
2022-09-14T07:23:02.825Z,9.00
2022-09-14T07:24:02.840Z,10.10
2022-09-14T07:25:02.804Z,9.90
2022-09-14T07:26:02.784Z,7.50
2022-09-14T07:27:02.786Z,9.90
2022-09-14T07:28:02.791Z,8.70
2022-09-14T07:29:02.755Z,8.60
2022-09-14T07:30:02.740Z,8.70
2022-09-14T07:31:02.804Z,7.90
2022-09-14T07:32:02.724Z,9.00
2022-09-14T07:33:02.731Z,10.50
2022-09-14T07:34:02.692Z,10.10
2022-09-14T07:35:02.681Z,8.40
2022-09-14T07:36:02.662Z,8.50
2022-09-14T07:37:02.672Z,9.20
2022-09-14T07:38:02.643Z,6.60
2022-09-14T07:39:02.837Z,7.50
2022-09-14T07:40:02.704Z,8.50
2022-09-14T07:41:02.624Z,7.80
2022-09-14T07:42:02.628Z,9.10
2022-09-14T07:43:02.595Z,8.60
2022-09-14T07:44:02.574Z,6.00
2022-09-14T07:45:02.595Z,5.70
2022-09-14T07:46:02.652Z,6.20
2022-09-14T07:47:02.546Z,6.90
2022-09-14T07:48:02.537Z,6.60
2022-09-14T07:49:02.526Z,8.90
2022-09-14T07:50:02.510Z,7.20
2022-09-14T07:51:02.526Z,7.80
2022-09-14T07:52:02.477Z,7.50
2022-09-14T07:53:02.477Z,9.60
2022-09-14T07:54:02.466Z,8.90
2022-09-14T07:55:02.463Z,8.40
2022-09-14T07:56:02.443Z,8.70
2022-09-14T07:57:02.459Z,7.20
2022-09-14T07:58:02.416Z,9.10
2022-09-14T07:59:30.829Z,10.00
2022-09-14T08:00:03.435Z,8.10
2022-09-14T08:01:02.432Z,7.90
2022-09-14T08:02:02.493Z,8.20
2022-09-14T08:03:02.379Z,8.40
2022-09-14T08:04:05.289Z,8.50
2022-09-14T08:05:02.338Z,8.00
2022-09-14T08:06:02.389Z,7.00
2022-09-14T08:07:02.333Z,7.00
2022-09-14T08:08:02.314Z,10.30
2022-09-14T08:09:02.331Z,7.10
2022-09-14T08:10:02.283Z,9.20
2022-09-14T08:11:02.261Z,6.90
2022-09-14T08:12:02.266Z,6.80
2022-09-14T08:13:02.250Z,7.40
2022-09-14T08:14:02.264Z,5.80
2022-09-14T08:15:02.249Z,6.70
2022-09-14T08:16:02.348Z,4.60
2022-09-14T08:17:02.342Z,6.60
2022-09-14T08:18:02.193Z,6.10
2022-09-14T08:19:02.178Z,7.80
2022-09-14T08:20:02.194Z,5.40
2022-09-14T08:21:02.153Z,7.00
2022-09-14T08:22:02.146Z,5.70
2022-09-14T08:23:02.124Z,6.10
2022-09-14T08:24:02.126Z,6.60
2022-09-14T08:25:02.113Z,6.10
2022-09-14T08:26:02.134Z,6.20
2022-09-14T08:27:02.075Z,7.60
2022-09-14T08:28:02.082Z,4.10
2022-09-14T08:29:02.189Z,7.90
2022-09-14T08:30:02.081Z,6.00
2022-09-14T08:31:02.035Z,8.50
2022-09-14T08:32:02.127Z,4.80
2022-09-14T08:33:02.138Z,5.40
2022-09-14T08:34:02.006Z,5.40
2022-09-14T08:35:02.026Z,3.70
2022-09-14T08:36:01.977Z,5.40
2022-09-14T08:37:01.977Z,3.90
2022-09-14T08:38:02.019Z,5.50
2022-09-14T08:39:01.967Z,3.50
2022-09-14T08:40:02.018Z,5.60
2022-09-14T08:41:01.951Z,8.00
2022-09-14T08:42:01.908Z,3.90
2022-09-14T08:43:01.899Z,5.50
2022-09-14T08:44:01.920Z,5.60
2022-09-14T08:45:02.557Z,3.90
2022-09-14T08:46:01.967Z,5.10
2022-09-14T08:47:01.863Z,6.00
2022-09-14T08:48:01.849Z,5.10
2022-09-14T08:49:01.851Z,5.50
2022-09-14T08:50:01.843Z,6.20
2022-09-14T08:51:01.811Z,4.80
2022-09-14T08:52:01.811Z,4.70
2022-09-14T08:53:01.804Z,6.10
2022-09-14T08:54:01.773Z,6.20
2022-09-14T08:55:01.798Z,5.00
2022-09-14T08:56:01.752Z,4.00
2022-09-14T08:57:01.761Z,4.90
2022-09-14T08:58:01.737Z,4.40
2022-09-14T08:59:01.722Z,5.70
2022-09-14T09:00:01.710Z,5.60
2022-09-14T09:01:01.742Z,4.90
2022-09-14T09:02:01.703Z,5.40
2022-09-14T09:03:01.696Z,6.90
2022-09-14T09:04:01.691Z,6.10
2022-09-14T09:05:01.659Z,5.00
2022-09-14T09:06:01.634Z,5.40
2022-09-14T09:07:01.672Z,7.70
2022-09-14T09:08:01.610Z,8.80
2022-09-14T09:09:01.605Z,7.20
2022-09-14T09:10:01.590Z,5.20
2022-09-14T09:11:01.599Z,7.70
2022-09-14T09:12:01.566Z,6.80
2022-09-14T09:13:01.580Z,7.90
2022-09-14T09:14:01.547Z,6.20
2022-09-14T09:15:01.546Z,7.10
2022-09-14T09:16:01.606Z,6.50
2022-09-14T09:17:01.516Z,8.90
2022-09-14T09:18:01.508Z,6.00
2022-09-14T09:19:01.567Z,6.60
2022-09-14T09:20:01.476Z,6.40
2022-09-14T09:21:01.477Z,7.00
2022-09-14T09:22:01.460Z,7.20
2022-09-14T09:23:01.442Z,6.20
2022-09-14T09:24:01.470Z,8.20
2022-09-14T09:25:01.460Z,7.50
2022-09-14T09:26:01.430Z,7.00
2022-09-14T09:27:01.402Z,8.80
2022-09-14T09:28:01.398Z,6.90
2022-09-14T09:29:01.409Z,7.10
2022-09-14T09:30:01.383Z,7.00
2022-09-14T09:31:01.411Z,7.60
2022-09-14T09:32:01.417Z,6.90
2022-09-14T09:33:01.342Z,6.50
2022-09-14T09:34:01.332Z,5.70
2022-09-14T09:35:01.347Z,5.90
2022-09-14T09:36:01.320Z,6.30
2022-09-14T09:37:01.300Z,7.20
2022-09-14T09:38:01.294Z,8.00
2022-09-14T09:39:04.939Z,7.20
2022-09-14T09:40:01.296Z,6.50
2022-09-14T09:41:01.272Z,6.90
2022-09-14T09:42:01.234Z,8.00
2022-09-14T09:43:01.237Z,6.70
2022-09-14T09:44:01.233Z,6.90
2022-09-14T09:45:03.675Z,9.30
2022-09-14T09:46:01.222Z,10.60
2022-09-14T09:47:01.239Z,8.40
2022-09-14T09:48:01.174Z,7.30
2022-09-14T09:49:01.161Z,9.40
2022-09-14T09:50:01.146Z,10.30
2022-09-14T09:51:01.133Z,10.00
2022-09-14T09:52:01.166Z,8.50
2022-09-14T09:53:06.045Z,7.50
2022-09-14T09:54:02.107Z,9.80
2022-09-14T09:55:01.087Z,7.50
2022-09-14T09:56:01.083Z,8.10
2022-09-14T09:57:01.098Z,9.30
2022-09-14T09:58:01.132Z,7.80
2022-09-14T09:59:01.074Z,9.30
2022-09-14T10:00:01.034Z,11.10
2022-09-14T10:01:01.134Z,11.00
2022-09-14T10:02:01.094Z,11.10
2022-09-14T10:03:01.058Z,10.10
2022-09-14T10:04:01.000Z,10.40
2022-09-14T10:05:00.990Z,11.10
2022-09-14T10:06:00.969Z,10.80
2022-09-14T10:07:00.950Z,9.30
2022-09-14T10:08:00.951Z,9.00
2022-09-14T10:09:00.961Z,10.90
2022-09-14T10:10:00.912Z,7.30
2022-09-14T10:11:00.901Z,12.20
2022-09-14T10:12:00.901Z,11.40
2022-09-14T10:13:00.891Z,9.30
2022-09-14T10:14:00.871Z,9.40
2022-09-14T10:15:00.881Z,13.00
2022-09-14T10:16:00.897Z,8.80
2022-09-14T10:17:00.842Z,8.90
2022-09-14T10:18:00.822Z,9.70
2022-09-14T10:19:00.812Z,9.60
2022-09-14T10:20:00.907Z,9.40
2022-09-14T10:21:00.803Z,10.60
2022-09-14T10:22:00.785Z,12.70
2022-09-14T10:23:00.777Z,11.90
2022-09-14T10:24:00.758Z,11.60
2022-09-14T10:25:00.759Z,10.40
2022-09-14T10:26:00.842Z,10.80
2022-09-14T10:27:00.724Z,11.60
2022-09-14T10:28:00.714Z,14.90
2022-09-14T10:29:00.715Z,12.00
2022-09-14T10:30:00.699Z,13.20
2022-09-14T10:31:00.738Z,12.20
2022-09-14T10:32:00.713Z,11.80
2022-09-14T10:33:00.683Z,11.20
2022-09-14T10:34:00.665Z,13.50
2022-09-14T10:35:00.672Z,13.00
2022-09-14T10:36:00.629Z,12.00
2022-09-14T10:37:00.640Z,12.10
2022-09-14T10:38:00.619Z,13.50
2022-09-14T10:39:00.606Z,14.50
2022-09-14T10:40:00.611Z,12.30
2022-09-14T10:41:00.581Z,11.90
2022-09-14T10:42:00.572Z,12.60
2022-09-14T10:43:00.608Z,11.90
2022-09-14T10:44:00.568Z,13.10
2022-09-14T10:45:00.536Z,12.40
2022-09-14T10:46:00.569Z,13.10
2022-09-14T10:47:04.590Z,12.30
2022-09-14T10:48:00.488Z,11.70
2022-09-14T10:49:00.520Z,12.50
2022-09-14T10:50:00.511Z,13.50
2022-09-14T10:51:00.459Z,12.80
2022-09-14T10:52:00.442Z,9.90
2022-09-14T10:53:00.431Z,11.00
2022-09-14T10:54:00.437Z,13.00
2022-09-14T10:55:00.446Z,13.00
2022-09-14T10:56:00.402Z,14.10
2022-09-14T10:57:00.393Z,11.30
2022-09-14T10:58:00.402Z,11.60
2022-09-14T10:59:00.362Z,11.40
2022-09-14T11:00:00.381Z,12.90
2022-09-14T11:01:00.334Z,13.30
2022-09-14T11:02:00.488Z,11.40
2022-09-14T11:03:00.422Z,10.50
2022-09-14T11:04:00.304Z,11.50
2022-09-14T11:05:00.294Z,11.10
2022-09-14T11:06:00.334Z,9.10
2022-09-14T11:07:00.265Z,10.10
2022-09-14T11:08:00.265Z,12.90
2022-09-14T11:09:00.276Z,10.70
2022-09-14T11:10:00.246Z,12.10
2022-09-14T11:11:00.229Z,13.80
2022-09-14T11:12:00.237Z,10.50
2022-09-14T11:13:00.197Z,10.10
2022-09-14T11:14:00.187Z,14.10
2022-09-14T11:15:00.168Z,9.20
2022-09-14T11:16:00.280Z,11.10
2022-09-14T11:17:00.175Z,8.10
2022-09-14T11:18:00.168Z,10.00
2022-09-14T11:19:00.127Z,10.10
2022-09-14T11:20:00.152Z,9.30
2022-09-14T11:21:00.113Z,10.70
2022-09-14T11:22:00.089Z,9.70
2022-09-14T11:23:00.080Z,10.30
2022-09-14T11:24:00.097Z,9.70
2022-09-14T11:25:00.127Z,9.90
2022-09-14T11:26:00.051Z,12.00
2022-09-14T11:27:00.039Z,12.30
2022-09-14T11:28:00.023Z,10.80
2022-09-14T11:29:00.047Z,12.80
2022-09-14T11:30:00.001Z,10.50
2022-09-14T11:31:00.027Z,9.40
2022-09-14T11:32:19.789Z,10.30
2022-09-14T11:33:00.969Z,10.40
2022-09-14T11:33:59.955Z,10.00
2022-09-14T11:34:59.966Z,11.50
2022-09-14T11:35:59.952Z,13.00
2022-09-14T11:36:59.923Z,13.60
2022-09-14T11:37:59.912Z,7.80
2022-09-14T11:39:03.427Z,9.60
2022-09-14T11:40:00.959Z,12.00
2022-09-14T11:40:59.889Z,11.70
2022-09-14T11:41:59.875Z,10.40
2022-09-14T11:42:59.845Z,9.30
2022-09-14T11:43:59.844Z,11.80
2022-09-14T11:44:59.827Z,12.30
2022-09-14T11:45:59.919Z,11.40
2022-09-14T11:47:01.004Z,12.10
2022-09-14T11:47:59.797Z,9.50
2022-09-14T11:48:59.786Z,9.70
2022-09-14T11:49:59.770Z,13.70
2022-09-14T11:50:59.759Z,10.40
2022-09-14T11:51:59.774Z,10.30
2022-09-14T11:52:59.761Z,9.90
2022-09-14T11:53:59.737Z,14.00
2022-09-14T11:54:59.728Z,11.20
2022-09-14T11:55:59.728Z,10.90
2022-09-14T11:56:59.740Z,9.50
2022-09-14T11:57:59.679Z,12.50
2022-09-14T11:58:59.671Z,14.50
2022-09-14T11:59:59.655Z,11.40
2022-09-14T12:00:59.730Z,13.40
2022-09-14T12:01:59.659Z,12.40
2022-09-14T12:02:59.714Z,14.60
2022-09-14T12:03:59.816Z,9.80
2022-09-14T12:04:59.602Z,11.80
2022-09-14T12:05:59.590Z,12.70
2022-09-14T12:06:59.572Z,10.60
2022-09-14T12:07:59.580Z,12.40
2022-09-14T12:08:59.613Z,10.40
2022-09-14T12:09:59.533Z,10.50
2022-09-14T12:10:59.522Z,10.70
2022-09-14T12:11:59.530Z,12.50
2022-09-14T12:12:59.563Z,10.00
2022-09-14T12:14:00.306Z,12.00
2022-09-14T12:14:59.532Z,11.80
2022-09-14T12:15:59.506Z,11.00
2022-09-14T12:16:59.463Z,10.60
2022-09-14T12:17:59.463Z,10.10
2022-09-14T12:18:59.435Z,11.80
2022-09-14T12:19:59.434Z,9.60
2022-09-14T12:20:59.485Z,10.30
2022-09-14T12:21:59.405Z,8.90
2022-09-14T12:22:59.385Z,9.40
2022-09-14T12:23:59.377Z,14.60
2022-09-14T12:24:59.376Z,9.30
2022-09-14T12:25:59.405Z,8.10
2022-09-14T12:26:59.354Z,12.10
2022-09-14T12:27:59.326Z,11.00
2022-09-14T12:28:59.344Z,9.10
2022-09-14T12:29:59.297Z,10.60
2022-09-14T12:30:59.348Z,8.10
2022-09-14T12:31:59.300Z,8.70
2022-09-14T12:32:59.288Z,8.60
2022-09-14T12:33:59.259Z,10.50
2022-09-14T12:34:59.255Z,11.20
2022-09-14T12:35:59.231Z,9.10
2022-09-14T12:36:59.238Z,7.80
2022-09-14T12:37:59.251Z,7.60
2022-09-14T12:38:59.200Z,7.60
2022-09-14T12:39:59.230Z,8.90
2022-09-14T12:40:59.181Z,9.20
2022-09-14T12:41:59.161Z,6.60
2022-09-14T12:42:59.152Z,8.70
2022-09-14T12:43:59.171Z,8.80
2022-09-14T12:44:59.133Z,6.80
2022-09-14T12:45:59.122Z,7.60
2022-09-14T12:46:59.111Z,9.30
2022-09-14T12:47:59.112Z,7.90
2022-09-14T12:48:59.094Z,9.20
2022-09-14T12:49:59.135Z,8.90
2022-09-14T12:50:59.073Z,7.40
2022-09-14T12:51:59.051Z,10.10
2022-09-14T12:52:59.056Z,8.80
2022-09-14T12:53:59.038Z,8.30
2022-09-14T12:54:59.034Z,9.00
2022-09-14T12:55:59.042Z,6.80
2022-09-14T12:56:59.018Z,7.70
2022-09-14T12:57:58.994Z,9.90
2022-09-14T12:58:58.977Z,7.60